Houwa Maru — JL6394 — position and weather

sailwx.info

Track history (hours):
 
Tides and Currents Weather Stations Pressure Air Temp Water Temp Dewpoint Dewpoint Depression Visibility Wind Speed Wind Dir Waves Ship Positions

Houwa Maru

Last reported at 2014-Aug-31 10:12 UTC. Time now 2014-Sep-02 02:03 UTC.
Position N 34°58' E 140°06'.

Length 76 m.

Type: Ship. MMSI: 431500378.

Date/timePositionNaut miles runAvg speedWind from/ knotsBaromVisibWave heightAir tempDewpointWater temp
2014-Aug-31 10:12N 34°58' E 140°06'  
2014-Aug-28 14:33N 34°37' E 135°10'1211.9
2014-Aug-28 13:31N 34°39' E 135°24'206 4.3
2014-Aug-26 14:06N 35°03' E 139°33'711.9
2014-Aug-26 13:32N 35°07' E 139°40'1111.0
2014-Aug-26 12:33N 35°17' E 139°45'10 9.7
2014-Aug-26 11:33N 35°27' E 139°46'1211.6
2014-Aug-26 10:33N 35°35' E 139°56'6 5.7
2014-Aug-26 09:32N 35°41' E 139°57'0 0.0
2014-Aug-26 08:32N 35°41' E 139°57'0 0.0
2014-Aug-26 07:32N 35°41' E 139°57'0 0.0
2014-Aug-26 06:32N 35°41' E 139°57'0 0.0
2014-Aug-26 05:30N 35°41' E 139°57'0 0.0
2014-Aug-26 04:32N 35°41' E 139°57'0 0.0
2014-Aug-26 03:33N 35°41' E 139°57'0 0.0
2014-Aug-26 02:33N 35°41' E 139°57'0 0.0
2014-Aug-26 01:33N 35°41' E 139°57'0 0.0
2014-Aug-26 00:32N 35°41' E 139°57'0 0.0
2014-Aug-25 23:32N 35°41' E 139°57'1 1.0
2014-Aug-25 22:32N 35°40' E 139°56'0 0.0
2014-Aug-25 21:31N 35°40' E 139°56'0 0.0
2014-Aug-25 20:31N 35°40' E 139°56'0 0.0
2014-Aug-25 19:31N 35°40' E 139°56'0 0.0
2014-Aug-25 18:31N 35°40' E 139°56'0 0.0
2014-Aug-25 17:28N 35°40' E 139°56'0 0.0
2014-Aug-25 16:28N 35°40' E 139°56'0 0.0
2014-Aug-25 15:31N 35°40' E 139°56'0 0.0
2014-Aug-25 14:31N 35°40' E 139°56'0 0.0
2014-Aug-25 13:31N 35°40' E 139°56'0 0.0
2014-Aug-25 12:31N 35°40' E 139°56'0 0.0
2014-Aug-25 11:31N 35°40' E 139°56'0 0.0
2014-Aug-25 10:31N 35°40' E 139°56'0 0.0
2014-Aug-25 09:31N 35°40' E 139°56'0 0.0
2014-Aug-25 08:31N 35°40' E 139°56'0 0.0
2014-Aug-25 07:24N 35°40' E 139°56'0 0.0
2014-Aug-25 06:33N 35°40' E 139°56'0 0.0
2014-Aug-25 05:33N 35°40' E 139°56'0 0.0
2014-Aug-25 04:33N 35°40' E 139°56'0 0.0
2014-Aug-25 03:33N 35°40' E 139°56'0 0.0
2014-Aug-25 02:33N 35°40' E 139°56'0 0.0
2014-Aug-25 01:33N 35°40' E 139°56'0 0.0
2014-Aug-25 00:33N 35°40' E 139°56'0 0.0
2014-Aug-24 23:30N 35°40' E 139°56'4 4.0
2014-Aug-24 22:31N 35°37' E 139°58'0 0.0
2014-Aug-24 21:28N 35°37' E 139°58'0 0.0
2014-Aug-24 20:31N 35°37' E 139°58'0 0.0
2014-Aug-24 19:31N 35°37' E 139°58'4 3.9
2014-Aug-24 18:33N 35°34' E 139°55'1310.9
2014-Aug-24 17:19N 35°23' E 139°46'810.0
2014-Aug-24 16:28N 35°15' E 139°47'1010.5
2014-Aug-24 15:33N 35°05' E 139°44'1110.8
2014-Aug-24 14:32N 34°58' E 139°34'  
Track history (hours):
 
Tides and Currents Weather Stations Pressure Air Temp Water Temp Dewpoint Dewpoint Depression Visibility Wind Speed Wind Dir Waves Ship Positions

Houwa Maru

Last reported at 2014-Aug-31 10:12 UTC. Time now 2014-Sep-02 02:03 UTC.
Position N 34°58' E 140°06'.

Length 76 m.

Type: Ship. MMSI: 431500378.

Date/timePositionNaut miles runAvg speedWind from/ knotsBaromVisibWave heightAir tempDewpointWater temp
2014-Aug-31 10:12N 34°58' E 140°06'  
2014-Aug-28 14:33N 34°37' E 135°10'1211.9
2014-Aug-28 13:31N 34°39' E 135°24'206 4.3
2014-Aug-26 14:06N 35°03' E 139°33'711.9
2014-Aug-26 13:32N 35°07' E 139°40'1111.0
2014-Aug-26 12:33N 35°17' E 139°45'10 9.7
2014-Aug-26 11:33N 35°27' E 139°46'1211.6
2014-Aug-26 10:33N 35°35' E 139°56'6 5.7
2014-Aug-26 09:32N 35°41' E 139°57'0 0.0
2014-Aug-26 08:32N 35°41' E 139°57'0 0.0
2014-Aug-26 07:32N 35°41' E 139°57'0 0.0
2014-Aug-26 06:32N 35°41' E 139°57'0 0.0
2014-Aug-26 05:30N 35°41' E 139°57'0 0.0
2014-Aug-26 04:32N 35°41' E 139°57'0 0.0
2014-Aug-26 03:33N 35°41' E 139°57'0 0.0
2014-Aug-26 02:33N 35°41' E 139°57'0 0.0
2014-Aug-26 01:33N 35°41' E 139°57'0 0.0
2014-Aug-26 00:32N 35°41' E 139°57'0 0.0
2014-Aug-25 23:32N 35°41' E 139°57'1 1.0
2014-Aug-25 22:32N 35°40' E 139°56'0 0.0
2014-Aug-25 21:31N 35°40' E 139°56'0 0.0
2014-Aug-25 20:31N 35°40' E 139°56'0 0.0
2014-Aug-25 19:31N 35°40' E 139°56'0 0.0
2014-Aug-25 18:31N 35°40' E 139°56'0 0.0
2014-Aug-25 17:28N 35°40' E 139°56'0 0.0
2014-Aug-25 16:28N 35°40' E 139°56'0 0.0
2014-Aug-25 15:31N 35°40' E 139°56'0 0.0
2014-Aug-25 14:31N 35°40' E 139°56'0 0.0
2014-Aug-25 13:31N 35°40' E 139°56'0 0.0
2014-Aug-25 12:31N 35°40' E 139°56'0 0.0
2014-Aug-25 11:31N 35°40' E 139°56'0 0.0
2014-Aug-25 10:31N 35°40' E 139°56'0 0.0
2014-Aug-25 09:31N 35°40' E 139°56'0 0.0
2014-Aug-25 08:31N 35°40' E 139°56'0 0.0
2014-Aug-25 07:24N 35°40' E 139°56'0 0.0
2014-Aug-25 06:33N 35°40' E 139°56'0 0.0
2014-Aug-25 05:33N 35°40' E 139°56'0 0.0
2014-Aug-25 04:33N 35°40' E 139°56'0 0.0
2014-Aug-25 03:33N 35°40' E 139°56'0 0.0
2014-Aug-25 02:33N 35°40' E 139°56'0 0.0
2014-Aug-25 01:33N 35°40' E 139°56'0 0.0
2014-Aug-25 00:33N 35°40' E 139°56'0 0.0
2014-Aug-24 23:30N 35°40' E 139°56'4 4.0
2014-Aug-24 22:31N 35°37' E 139°58'0 0.0
2014-Aug-24 21:28N 35°37' E 139°58'0 0.0
2014-Aug-24 20:31N 35°37' E 139°58'0 0.0
2014-Aug-24 19:31N 35°37' E 139°58'4 3.9
2014-Aug-24 18:33N 35°34' E 139°55'1310.9
2014-Aug-24 17:19N 35°23' E 139°46'810.0
2014-Aug-24 16:28N 35°15' E 139°47'1010.5
2014-Aug-24 15:33N 35°05' E 139°44'1110.8
2014-Aug-24 14:32N 34°58' E 139°34'  

Dump ship's entire track history